sensor_id;sensor_type;location;lat;lon;timestamp;P1;durP1;ratioP1;P2;durP2;ratioP2
22064;SDS011;11197;53.110;8.468;2023-07-28T00:01:31;6.78;;;4.90;;
22064;SDS011;11197;53.110;8.468;2023-07-28T00:04:00;6.00;;;4.72;;
22064;SDS011;11197;53.110;8.468;2023-07-28T00:06:32;6.55;;;4.63;;
22064;SDS011;11197;53.110;8.468;2023-07-28T00:08:58;7.22;;;4.50;;
22064;SDS011;11197;53.110;8.468;2023-07-28T00:11:24;6.32;;;4.72;;
22064;SDS011;11197;53.110;8.468;2023-07-28T00:13:50;6.90;;;4.70;;
22064;SDS011;11197;53.110;8.468;2023-07-28T00:16:15;5.60;;;4.47;;
22064;SDS011;11197;53.110;8.468;2023-07-28T00:18:41;9.77;;;4.85;;
22064;SDS011;11197;53.110;8.468;2023-07-28T00:21:07;9.43;;;4.55;;
22064;SDS011;11197;53.110;8.468;2023-07-28T00:23:32;9.93;;;5.00;;
22064;SDS011;11197;53.110;8.468;2023-07-28T00:25:58;7.25;;;4.93;;
22064;SDS011;11197;53.110;8.468;2023-07-28T00:28:24;7.53;;;5.28;;
22064;SDS011;11197;53.110;8.468;2023-07-28T00:30:50;6.45;;;4.57;;
22064;SDS011;11197;53.110;8.468;2023-07-28T00:33:18;6.88;;;4.63;;
22064;SDS011;11197;53.110;8.468;2023-07-28T00:35:44;7.45;;;5.40;;
22064;SDS011;11197;53.110;8.468;2023-07-28T00:38:10;7.55;;;5.32;;
22064;SDS011;11197;53.110;8.468;2023-07-28T00:40:36;6.78;;;4.72;;
22064;SDS011;11197;53.110;8.468;2023-07-28T00:43:01;8.45;;;5.65;;
22064;SDS011;11197;53.110;8.468;2023-07-28T00:45:28;6.60;;;4.97;;
22064;SDS011;11197;53.110;8.468;2023-07-28T00:47:56;6.70;;;4.80;;
22064;SDS011;11197;53.110;8.468;2023-07-28T00:50:25;9.35;;;5.70;;
22064;SDS011;11197;53.110;8.468;2023-07-28T00:52:51;7.10;;;5.35;;
22064;SDS011;11197;53.110;8.468;2023-07-28T00:55:17;6.72;;;5.30;;
22064;SDS011;11197;53.110;8.468;2023-07-28T00:57:43;6.63;;;5.50;;
22064;SDS011;11197;53.110;8.468;2023-07-28T01:00:10;7.78;;;5.57;;
22064;SDS011;11197;53.110;8.468;2023-07-28T01:02:36;5.85;;;4.85;;
22064;SDS011;11197;53.110;8.468;2023-07-28T01:05:02;5.78;;;4.80;;
22064;SDS011;11197;53.110;8.468;2023-07-28T01:10:33;6.47;;;5.38;;
22064;SDS011;11197;53.110;8.468;2023-07-28T01:13:00;10.43;;;6.70;;
22064;SDS011;11197;53.110;8.468;2023-07-28T01:15:26;8.63;;;5.65;;
22064;SDS011;11197;53.110;8.468;2023-07-28T01:17:52;6.43;;;5.55;;
22064;SDS011;11197;53.110;8.468;2023-07-28T01:20:17;8.65;;;6.10;;
22064;SDS011;11197;53.110;8.468;2023-07-28T01:25:50;10.15;;;6.75;;
22064;SDS011;11197;53.110;8.468;2023-07-28T01:28:29;11.50;;;7.57;;
22064;SDS011;11197;53.110;8.468;2023-07-28T01:30:56;10.57;;;6.20;;
22064;SDS011;11197;53.110;8.468;2023-07-28T01:33:22;9.95;;;7.43;;
22064;SDS011;11197;53.110;8.468;2023-07-28T01:35:48;11.52;;;8.02;;
22064;SDS011;11197;53.110;8.468;2023-07-28T01:38:13;8.80;;;6.90;;
22064;SDS011;11197;53.110;8.468;2023-07-28T01:40:39;11.52;;;7.32;;
22064;SDS011;11197;53.110;8.468;2023-07-28T01:43:05;10.90;;;7.40;;
22064;SDS011;11197;53.110;8.468;2023-07-28T01:45:31;10.20;;;6.97;;
22064;SDS011;11197;53.110;8.468;2023-07-28T01:47:56;11.10;;;8.15;;
22064;SDS011;11197;53.110;8.468;2023-07-28T01:50:22;12.35;;;9.00;;
22064;SDS011;11197;53.110;8.468;2023-07-28T01:52:48;14.40;;;9.23;;
22064;SDS011;11197;53.110;8.468;2023-07-28T01:55:14;12.57;;;8.73;;
22064;SDS011;11197;53.110;8.468;2023-07-28T01:57:39;13.45;;;9.60;;
22064;SDS011;11197;53.110;8.468;2023-07-28T02:00:14;16.70;;;10.55;;
22064;SDS011;11197;53.110;8.468;2023-07-28T02:02:40;14.98;;;9.80;;
22064;SDS011;11197;53.110;8.468;2023-07-28T02:05:06;17.63;;;10.57;;
22064;SDS011;11197;53.110;8.468;2023-07-28T02:07:32;15.82;;;9.70;;
22064;SDS011;11197;53.110;8.468;2023-07-28T02:09:57;13.00;;;9.05;;
22064;SDS011;11197;53.110;8.468;2023-07-28T02:12:23;11.90;;;8.88;;
22064;SDS011;11197;53.110;8.468;2023-07-28T02:14:49;12.75;;;8.18;;
22064;SDS011;11197;53.110;8.468;2023-07-28T02:17:15;9.75;;;6.90;;
22064;SDS011;11197;53.110;8.468;2023-07-28T02:19:41;9.18;;;6.00;;
22064;SDS011;11197;53.110;8.468;2023-07-28T02:22:07;8.38;;;6.10;;
22064;SDS011;11197;53.110;8.468;2023-07-28T02:24:33;9.38;;;5.80;;
22064;SDS011;11197;53.110;8.468;2023-07-28T02:26:58;9.45;;;5.68;;
22064;SDS011;11197;53.110;8.468;2023-07-28T02:29:25;8.05;;;4.38;;
22064;SDS011;11197;53.110;8.468;2023-07-28T02:31:50;7.43;;;4.40;;
22064;SDS011;11197;53.110;8.468;2023-07-28T02:34:16;7.70;;;3.67;;
22064;SDS011;11197;53.110;8.468;2023-07-28T02:36:42;5.13;;;3.25;;
22064;SDS011;11197;53.110;8.468;2023-07-28T02:39:08;5.28;;;2.63;;
22064;SDS011;11197;53.110;8.468;2023-07-28T02:41:33;3.40;;;2.45;;
22064;SDS011;11197;53.110;8.468;2023-07-28T02:43:59;4.22;;;2.17;;
22064;SDS011;11197;53.110;8.468;2023-07-28T02:46:25;2.80;;;1.92;;
22064;SDS011;11197;53.110;8.468;2023-07-28T02:48:51;4.18;;;2.10;;
22064;SDS011;11197;53.110;8.468;2023-07-28T02:51:17;6.10;;;2.70;;
22064;SDS011;11197;53.110;8.468;2023-07-28T02:53:42;5.30;;;4.03;;
22064;SDS011;11197;53.110;8.468;2023-07-28T02:56:08;5.07;;;4.18;;
22064;SDS011;11197;53.110;8.468;2023-07-28T02:58:34;4.72;;;3.80;;
22064;SDS011;11197;53.110;8.468;2023-07-28T03:01:00;8.20;;;6.00;;
22064;SDS011;11197;53.110;8.468;2023-07-28T03:03:33;9.30;;;6.22;;
22064;SDS011;11197;53.110;8.468;2023-07-28T03:05:58;8.55;;;6.20;;
22064;SDS011;11197;53.110;8.468;2023-07-28T03:08:25;8.50;;;6.45;;
22064;SDS011;11197;53.110;8.468;2023-07-28T03:10:58;8.82;;;6.25;;
22064;SDS011;11197;53.110;8.468;2023-07-28T03:13:24;14.13;;;9.13;;
22064;SDS011;11197;53.110;8.468;2023-07-28T03:15:50;10.35;;;8.20;;
22064;SDS011;11197;53.110;8.468;2023-07-28T03:18:18;11.13;;;8.95;;
22064;SDS011;11197;53.110;8.468;2023-07-28T03:20:45;14.80;;;9.27;;
22064;SDS011;11197;53.110;8.468;2023-07-28T03:23:11;13.50;;;9.80;;
22064;SDS011;11197;53.110;8.468;2023-07-28T03:25:37;17.50;;;10.27;;
22064;SDS011;11197;53.110;8.468;2023-07-28T03:28:02;14.02;;;9.07;;
22064;SDS011;11197;53.110;8.468;2023-07-28T03:30:28;14.73;;;9.95;;
22064;SDS011;11197;53.110;8.468;2023-07-28T03:32:54;14.30;;;9.98;;
22064;SDS011;11197;53.110;8.468;2023-07-28T03:35:20;15.85;;;10.93;;
22064;SDS011;11197;53.110;8.468;2023-07-28T03:37:54;18.15;;;11.88;;
22064;SDS011;11197;53.110;8.468;2023-07-28T03:40:20;18.17;;;11.30;;
22064;SDS011;11197;53.110;8.468;2023-07-28T03:42:50;16.70;;;11.57;;
22064;SDS011;11197;53.110;8.468;2023-07-28T03:45:17;17.98;;;11.95;;
22064;SDS011;11197;53.110;8.468;2023-07-28T03:47:42;14.77;;;10.48;;
22064;SDS011;11197;53.110;8.468;2023-07-28T03:50:08;17.50;;;11.93;;
22064;SDS011;11197;53.110;8.468;2023-07-28T03:52:34;13.88;;;10.95;;
22064;SDS011;11197;53.110;8.468;2023-07-28T03:55:00;17.45;;;11.95;;
22064;SDS011;11197;53.110;8.468;2023-07-28T03:57:25;17.38;;;11.70;;
22064;SDS011;11197;53.110;8.468;2023-07-28T03:59:51;15.73;;;12.10;;
22064;SDS011;11197;53.110;8.468;2023-07-28T04:02:17;19.55;;;12.73;;
22064;SDS011;11197;53.110;8.468;2023-07-28T04:04:43;18.27;;;11.55;;
22064;SDS011;11197;53.110;8.468;2023-07-28T04:07:08;19.08;;;12.93;;
22064;SDS011;11197;53.110;8.468;2023-07-28T04:09:34;17.92;;;12.35;;
22064;SDS011;11197;53.110;8.468;2023-07-28T04:12:00;16.20;;;12.05;;
22064;SDS011;11197;53.110;8.468;2023-07-28T04:14:25;16.17;;;11.90;;
22064;SDS011;11197;53.110;8.468;2023-07-28T04:16:51;16.10;;;11.77;;
22064;SDS011;11197;53.110;8.468;2023-07-28T04:19:17;16.73;;;12.10;;
22064;SDS011;11197;53.110;8.468;2023-07-28T04:21:43;17.13;;;11.90;;
22064;SDS011;11197;53.110;8.468;2023-07-28T04:24:09;15.32;;;11.52;;
22064;SDS011;11197;53.110;8.468;2023-07-28T04:26:40;15.35;;;10.98;;
22064;SDS011;11197;53.110;8.468;2023-07-28T04:29:08;17.20;;;12.18;;
22064;SDS011;11197;53.110;8.468;2023-07-28T04:31:33;14.18;;;11.25;;
22064;SDS011;11197;53.110;8.468;2023-07-28T04:34:06;18.92;;;12.45;;
22064;SDS011;11197;53.110;8.468;2023-07-28T04:36:52;15.88;;;11.90;;
22064;SDS011;11197;53.110;8.468;2023-07-28T04:39:22;20.25;;;11.38;;
22064;SDS011;11197;53.110;8.468;2023-07-28T04:41:48;15.70;;;11.10;;
22064;SDS011;11197;53.110;8.468;2023-07-28T04:44:13;16.67;;;11.20;;
22064;SDS011;11197;53.110;8.468;2023-07-28T04:46:42;14.05;;;10.57;;
22064;SDS011;11197;53.110;8.468;2023-07-28T04:49:11;14.93;;;10.63;;
22064;SDS011;11197;53.110;8.468;2023-07-28T04:51:56;14.30;;;10.73;;
22064;SDS011;11197;53.110;8.468;2023-07-28T04:54:37;16.45;;;11.07;;
22064;SDS011;11197;53.110;8.468;2023-07-28T04:57:03;14.80;;;11.05;;
22064;SDS011;11197;53.110;8.468;2023-07-28T04:59:32;13.05;;;9.77;;
22064;SDS011;11197;53.110;8.468;2023-07-28T05:01:58;17.17;;;11.18;;
22064;SDS011;11197;53.110;8.468;2023-07-28T05:04:24;13.90;;;9.75;;
22064;SDS011;11197;53.110;8.468;2023-07-28T05:06:50;11.98;;;9.63;;
22064;SDS011;11197;53.110;8.468;2023-07-28T05:09:15;15.75;;;10.82;;
22064;SDS011;11197;53.110;8.468;2023-07-28T05:11:41;15.73;;;10.18;;
22064;SDS011;11197;53.110;8.468;2023-07-28T05:14:07;14.43;;;10.82;;
22064;SDS011;11197;53.110;8.468;2023-07-28T05:16:34;16.90;;;11.45;;
22064;SDS011;11197;53.110;8.468;2023-07-28T05:19:06;19.27;;;13.23;;
22064;SDS011;11197;53.110;8.468;2023-07-28T05:22:07;19.15;;;13.00;;
22064;SDS011;11197;53.110;8.468;2023-07-28T05:24:46;19.75;;;13.00;;
22064;SDS011;11197;53.110;8.468;2023-07-28T05:27:13;21.85;;;12.98;;
22064;SDS011;11197;53.110;8.468;2023-07-28T05:29:41;20.25;;;12.85;;
22064;SDS011;11197;53.110;8.468;2023-07-28T05:32:07;16.95;;;12.25;;
22064;SDS011;11197;53.110;8.468;2023-07-28T05:35:03;17.88;;;12.85;;
22064;SDS011;11197;53.110;8.468;2023-07-28T05:37:29;20.95;;;13.55;;
22064;SDS011;11197;53.110;8.468;2023-07-28T05:39:55;22.92;;;14.70;;
22064;SDS011;11197;53.110;8.468;2023-07-28T05:42:21;25.63;;;14.40;;
22064;SDS011;11197;53.110;8.468;2023-07-28T05:44:48;21.80;;;13.75;;
22064;SDS011;11197;53.110;8.468;2023-07-28T05:47:15;24.80;;;14.45;;
22064;SDS011;11197;53.110;8.468;2023-07-28T05:49:41;24.75;;;15.27;;
22064;SDS011;11197;53.110;8.468;2023-07-28T05:52:07;25.75;;;15.90;;
22064;SDS011;11197;53.110;8.468;2023-07-28T05:54:33;21.33;;;14.82;;
22064;SDS011;11197;53.110;8.468;2023-07-28T05:57:02;24.37;;;14.70;;
22064;SDS011;11197;53.110;8.468;2023-07-28T05:59:28;28.00;;;15.77;;
22064;SDS011;11197;53.110;8.468;2023-07-28T06:01:54;22.92;;;14.48;;
22064;SDS011;11197;53.110;8.468;2023-07-28T06:04:23;26.42;;;14.80;;
22064;SDS011;11197;53.110;8.468;2023-07-28T06:06:54;23.40;;;15.55;;
22064;SDS011;11197;53.110;8.468;2023-07-28T06:09:20;24.92;;;15.38;;
22064;SDS011;11197;53.110;8.468;2023-07-28T06:11:46;24.27;;;15.88;;
22064;SDS011;11197;53.110;8.468;2023-07-28T06:14:12;27.42;;;16.17;;
22064;SDS011;11197;53.110;8.468;2023-07-28T06:16:38;25.92;;;16.77;;
22064;SDS011;11197;53.110;8.468;2023-07-28T06:19:05;30.90;;;16.67;;
22064;SDS011;11197;53.110;8.468;2023-07-28T06:21:32;24.38;;;15.60;;
22064;SDS011;11197;53.110;8.468;2023-07-28T06:23:58;28.05;;;16.20;;
22064;SDS011;11197;53.110;8.468;2023-07-28T06:26:24;26.20;;;15.20;;
22064;SDS011;11197;53.110;8.468;2023-07-28T06:28:49;26.70;;;16.30;;
22064;SDS011;11197;53.110;8.468;2023-07-28T06:31:15;25.55;;;15.25;;
22064;SDS011;11197;53.110;8.468;2023-07-28T06:33:41;25.58;;;15.30;;
22064;SDS011;11197;53.110;8.468;2023-07-28T06:36:07;22.92;;;15.57;;
22064;SDS011;11197;53.110;8.468;2023-07-28T06:38:33;22.25;;;15.43;;
22064;SDS011;11197;53.110;8.468;2023-07-28T06:40:58;32.00;;;16.65;;
22064;SDS011;11197;53.110;8.468;2023-07-28T06:43:25;25.83;;;16.27;;
22064;SDS011;11197;53.110;8.468;2023-07-28T06:45:52;22.40;;;15.95;;
22064;SDS011;11197;53.110;8.468;2023-07-28T06:48:19;25.15;;;16.08;;
22064;SDS011;11197;53.110;8.468;2023-07-28T06:50:45;26.90;;;15.52;;
22064;SDS011;11197;53.110;8.468;2023-07-28T06:53:10;26.50;;;16.30;;
22064;SDS011;11197;53.110;8.468;2023-07-28T06:55:36;28.50;;;16.50;;
22064;SDS011;11197;53.110;8.468;2023-07-28T06:58:04;30.67;;;16.92;;
22064;SDS011;11197;53.110;8.468;2023-07-28T07:00:31;24.38;;;16.70;;
22064;SDS011;11197;53.110;8.468;2023-07-28T07:02:56;30.63;;;17.42;;
22064;SDS011;11197;53.110;8.468;2023-07-28T07:05:22;29.23;;;18.17;;
22064;SDS011;11197;53.110;8.468;2023-07-28T07:07:48;28.33;;;16.10;;
22064;SDS011;11197;53.110;8.468;2023-07-28T07:10:14;28.15;;;15.98;;
22064;SDS011;11197;53.110;8.468;2023-07-28T07:12:40;26.25;;;17.55;;
22064;SDS011;11197;53.110;8.468;2023-07-28T07:15:06;25.73;;;17.50;;
22064;SDS011;11197;53.110;8.468;2023-07-28T07:17:32;29.30;;;18.35;;
22064;SDS011;11197;53.110;8.468;2023-07-28T07:19:58;28.25;;;17.90;;
22064;SDS011;11197;53.110;8.468;2023-07-28T07:22:24;30.10;;;18.23;;
22064;SDS011;11197;53.110;8.468;2023-07-28T07:24:49;28.52;;;17.35;;
22064;SDS011;11197;53.110;8.468;2023-07-28T07:27:15;30.08;;;18.13;;
22064;SDS011;11197;53.110;8.468;2023-07-28T07:29:41;33.88;;;18.60;;
22064;SDS011;11197;53.110;8.468;2023-07-28T07:32:07;22.30;;;14.15;;
22064;SDS011;11197;53.110;8.468;2023-07-28T07:34:33;25.92;;;16.33;;
22064;SDS011;11197;53.110;8.468;2023-07-28T07:36:59;24.70;;;16.42;;
22064;SDS011;11197;53.110;8.468;2023-07-28T07:39:25;22.70;;;16.40;;
22064;SDS011;11197;53.110;8.468;2023-07-28T07:41:51;28.10;;;18.50;;
22064;SDS011;11197;53.110;8.468;2023-07-28T07:44:16;31.35;;;18.25;;
22064;SDS011;11197;53.110;8.468;2023-07-28T07:46:42;27.70;;;18.42;;
22064;SDS011;11197;53.110;8.468;2023-07-28T07:49:08;24.75;;;17.67;;
22064;SDS011;11197;53.110;8.468;2023-07-28T07:51:33;27.60;;;18.08;;
22064;SDS011;11197;53.110;8.468;2023-07-28T07:54:19;27.95;;;17.45;;
22064;SDS011;11197;53.110;8.468;2023-07-28T07:56:45;27.90;;;17.80;;
22064;SDS011;11197;53.110;8.468;2023-07-28T07:59:12;25.30;;;17.33;;
22064;SDS011;11197;53.110;8.468;2023-07-28T08:01:37;25.00;;;17.15;;
22064;SDS011;11197;53.110;8.468;2023-07-28T08:04:03;24.73;;;16.75;;
22064;SDS011;11197;53.110;8.468;2023-07-28T08:06:29;24.63;;;15.68;;
22064;SDS011;11197;53.110;8.468;2023-07-28T08:08:55;21.83;;;16.85;;
22064;SDS011;11197;53.110;8.468;2023-07-28T08:11:22;21.95;;;15.90;;
22064;SDS011;11197;53.110;8.468;2023-07-28T08:13:47;26.50;;;17.70;;
22064;SDS011;11197;53.110;8.468;2023-07-28T08:16:13;23.67;;;16.83;;
22064;SDS011;11197;53.110;8.468;2023-07-28T08:18:39;29.42;;;17.23;;
22064;SDS011;11197;53.110;8.468;2023-07-28T08:21:05;26.08;;;17.10;;
22064;SDS011;11197;53.110;8.468;2023-07-28T08:23:30;25.95;;;16.08;;
22064;SDS011;11197;53.110;8.468;2023-07-28T08:25:56;23.67;;;17.08;;
22064;SDS011;11197;53.110;8.468;2023-07-28T08:28:22;21.67;;;16.50;;
22064;SDS011;11197;53.110;8.468;2023-07-28T08:30:54;22.70;;;16.05;;
22064;SDS011;11197;53.110;8.468;2023-07-28T08:33:21;23.77;;;16.52;;
22064;SDS011;11197;53.110;8.468;2023-07-28T08:35:47;26.40;;;16.27;;
22064;SDS011;11197;53.110;8.468;2023-07-28T08:38:13;22.27;;;16.00;;
22064;SDS011;11197;53.110;8.468;2023-07-28T08:40:39;23.20;;;15.57;;
22064;SDS011;11197;53.110;8.468;2023-07-28T08:43:05;22.35;;;15.43;;
22064;SDS011;11197;53.110;8.468;2023-07-28T08:45:31;19.63;;;15.00;;
22064;SDS011;11197;53.110;8.468;2023-07-28T08:47:57;21.38;;;15.82;;
22064;SDS011;11197;53.110;8.468;2023-07-28T08:50:23;26.05;;;16.58;;
22064;SDS011;11197;53.110;8.468;2023-07-28T08:52:49;23.52;;;17.23;;
22064;SDS011;11197;53.110;8.468;2023-07-28T08:55:15;25.55;;;16.73;;
22064;SDS011;11197;53.110;8.468;2023-07-28T08:57:42;25.60;;;16.65;;
22064;SDS011;11197;53.110;8.468;2023-07-28T09:00:11;23.17;;;17.00;;
22064;SDS011;11197;53.110;8.468;2023-07-28T09:02:40;25.60;;;17.85;;
22064;SDS011;11197;53.110;8.468;2023-07-28T09:05:06;24.90;;;17.40;;
22064;SDS011;11197;53.110;8.468;2023-07-28T09:07:35;26.55;;;17.52;;
22064;SDS011;11197;53.110;8.468;2023-07-28T09:10:01;21.83;;;15.80;;
22064;SDS011;11197;53.110;8.468;2023-07-28T09:12:30;18.70;;;13.10;;
22064;SDS011;11197;53.110;8.468;2023-07-28T09:14:57;22.67;;;13.15;;
22064;SDS011;11197;53.110;8.468;2023-07-28T09:17:23;14.80;;;11.20;;
22064;SDS011;11197;53.110;8.468;2023-07-28T09:19:55;16.05;;;11.55;;
22064;SDS011;11197;53.110;8.468;2023-07-28T09:22:22;17.52;;;11.45;;
22064;SDS011;11197;53.110;8.468;2023-07-28T09:24:48;16.77;;;10.88;;
22064;SDS011;11197;53.110;8.468;2023-07-28T09:27:19;17.73;;;11.77;;
22064;SDS011;11197;53.110;8.468;2023-07-28T09:29:53;14.65;;;10.98;;
22064;SDS011;11197;53.110;8.468;2023-07-28T09:32:54;14.40;;;11.18;;
22064;SDS011;11197;53.110;8.468;2023-07-28T09:35:13;15.60;;;11.35;;
22064;SDS011;11197;53.110;8.468;2023-07-28T09:37:40;19.30;;;11.68;;
22064;SDS011;11197;53.110;8.468;2023-07-28T09:40:07;15.55;;;10.50;;
22064;SDS011;11197;53.110;8.468;2023-07-28T09:42:38;14.52;;;10.10;;
22064;SDS011;11197;53.110;8.468;2023-07-28T09:45:05;14.60;;;9.13;;
22064;SDS011;11197;53.110;8.468;2023-07-28T09:47:33;12.82;;;8.95;;
22064;SDS011;11197;53.110;8.468;2023-07-28T09:50:03;14.50;;;8.50;;
22064;SDS011;11197;53.110;8.468;2023-07-28T09:52:41;11.60;;;7.82;;
22064;SDS011;11197;53.110;8.468;2023-07-28T09:55:09;13.32;;;7.50;;
22064;SDS011;11197;53.110;8.468;2023-07-28T09:57:38;12.57;;;6.97;;
22064;SDS011;11197;53.110;8.468;2023-07-28T10:00:20;12.80;;;7.15;;
22064;SDS011;11197;53.110;8.468;2023-07-28T10:02:47;10.18;;;6.47;;
22064;SDS011;11197;53.110;8.468;2023-07-28T10:05:14;10.80;;;6.45;;
22064;SDS011;11197;53.110;8.468;2023-07-28T10:07:41;9.55;;;5.45;;
22064;SDS011;11197;53.110;8.468;2023-07-28T10:10:09;10.70;;;6.03;;
22064;SDS011;11197;53.110;8.468;2023-07-28T10:12:41;5.72;;;4.65;;
22064;SDS011;11197;53.110;8.468;2023-07-28T10:15:17;9.63;;;5.00;;
22064;SDS011;11197;53.110;8.468;2023-07-28T10:17:49;8.75;;;4.80;;
22064;SDS011;11197;53.110;8.468;2023-07-28T10:20:26;6.35;;;4.25;;
22064;SDS011;11197;53.110;8.468;2023-07-28T10:22:53;8.52;;;4.70;;
22064;SDS011;11197;53.110;8.468;2023-07-28T10:25:22;7.18;;;3.85;;
22064;SDS011;11197;53.110;8.468;2023-07-28T10:27:50;5.57;;;3.67;;
22064;SDS011;11197;53.110;8.468;2023-07-28T10:30:16;6.07;;;3.53;;
22064;SDS011;11197;53.110;8.468;2023-07-28T10:32:45;8.18;;;4.00;;
22064;SDS011;11197;53.110;8.468;2023-07-28T10:37:47;7.30;;;3.20;;
22064;SDS011;11197;53.110;8.468;2023-07-28T10:43:01;7.75;;;3.58;;
22064;SDS011;11197;53.110;8.468;2023-07-28T10:45:29;4.95;;;3.03;;
22064;SDS011;11197;53.110;8.468;2023-07-28T10:47:56;6.55;;;3.15;;
22064;SDS011;11197;53.110;8.468;2023-07-28T10:50:26;5.95;;;3.20;;
22064;SDS011;11197;53.110;8.468;2023-07-28T10:52:54;5.90;;;3.47;;
22064;SDS011;11197;53.110;8.468;2023-07-28T10:55:24;3.50;;;2.97;;
22064;SDS011;11197;53.110;8.468;2023-07-28T10:57:51;6.30;;;3.30;;
22064;SDS011;11197;53.110;8.468;2023-07-28T11:00:19;5.90;;;3.35;;
22064;SDS011;11197;53.110;8.468;2023-07-28T11:02:53;5.35;;;3.30;;
22064;SDS011;11197;53.110;8.468;2023-07-28T11:05:20;5.82;;;3.40;;
22064;SDS011;11197;53.110;8.468;2023-07-28T11:07:47;4.15;;;3.30;;
22064;SDS011;11197;53.110;8.468;2023-07-28T11:10:14;5.05;;;3.60;;
22064;SDS011;11197;53.110;8.468;2023-07-28T11:12:40;6.43;;;3.25;;
22064;SDS011;11197;53.110;8.468;2023-07-28T11:15:10;5.03;;;2.90;;
22064;SDS011;11197;53.110;8.468;2023-07-28T11:17:38;4.45;;;3.00;;
22064;SDS011;11197;53.110;8.468;2023-07-28T11:20:27;3.70;;;3.10;;
22064;SDS011;11197;53.110;8.468;2023-07-28T11:22:56;5.90;;;3.30;;
22064;SDS011;11197;53.110;8.468;2023-07-28T11:25:24;7.47;;;3.30;;
22064;SDS011;11197;53.110;8.468;2023-07-28T11:27:50;5.38;;;3.20;;
22064;SDS011;11197;53.110;8.468;2023-07-28T11:30:17;5.00;;;3.13;;
22064;SDS011;11197;53.110;8.468;2023-07-28T11:32:44;6.97;;;3.17;;
22064;SDS011;11197;53.110;8.468;2023-07-28T11:35:12;5.43;;;3.38;;
22064;SDS011;11197;53.110;8.468;2023-07-28T11:37:40;5.15;;;3.20;;
22064;SDS011;11197;53.110;8.468;2023-07-28T11:40:07;7.15;;;3.40;;
22064;SDS011;11197;53.110;8.468;2023-07-28T11:42:39;5.95;;;3.85;;
22064;SDS011;11197;53.110;8.468;2023-07-28T11:45:07;4.97;;;3.33;;
22064;SDS011;11197;53.110;8.468;2023-07-28T11:47:33;4.07;;;3.42;;
22064;SDS011;11197;53.110;8.468;2023-07-28T11:49:59;5.25;;;3.42;;
22064;SDS011;11197;53.110;8.468;2023-07-28T11:52:32;4.63;;;3.20;;
22064;SDS011;11197;53.110;8.468;2023-07-28T11:55:02;5.40;;;2.97;;
22064;SDS011;11197;53.110;8.468;2023-07-28T11:57:34;3.65;;;2.80;;
22064;SDS011;11197;53.110;8.468;2023-07-28T12:00:00;4.90;;;2.92;;
22064;SDS011;11197;53.110;8.468;2023-07-28T12:02:26;4.20;;;2.83;;
22064;SDS011;11197;53.110;8.468;2023-07-28T12:04:53;4.55;;;2.75;;
22064;SDS011;11197;53.110;8.468;2023-07-28T12:07:26;4.55;;;3.00;;
22064;SDS011;11197;53.110;8.468;2023-07-28T12:09:56;5.55;;;3.38;;
22064;SDS011;11197;53.110;8.468;2023-07-28T12:12:27;4.72;;;3.30;;
22064;SDS011;11197;53.110;8.468;2023-07-28T12:14:55;4.63;;;3.15;;
22064;SDS011;11197;53.110;8.468;2023-07-28T12:17:23;4.57;;;2.92;;
22064;SDS011;11197;53.110;8.468;2023-07-28T12:20:01;4.47;;;3.35;;
22064;SDS011;11197;53.110;8.468;2023-07-28T12:22:41;3.65;;;3.03;;
22064;SDS011;11197;53.110;8.468;2023-07-28T12:25:09;4.32;;;3.47;;
22064;SDS011;11197;53.110;8.468;2023-07-28T12:27:36;4.55;;;2.95;;
22064;SDS011;11197;53.110;8.468;2023-07-28T12:30:03;10.02;;;2.92;;
22064;SDS011;11197;53.110;8.468;2023-07-28T12:32:29;3.63;;;2.90;;
22064;SDS011;11197;53.110;8.468;2023-07-28T12:34:55;4.70;;;3.70;;
22064;SDS011;11197;53.110;8.468;2023-07-28T12:37:20;4.20;;;2.83;;
22064;SDS011;11197;53.110;8.468;2023-07-28T12:39:47;6.00;;;3.30;;
22064;SDS011;11197;53.110;8.468;2023-07-28T12:42:13;3.60;;;2.75;;
22064;SDS011;11197;53.110;8.468;2023-07-28T12:44:39;4.70;;;2.10;;
22064;SDS011;11197;53.110;8.468;2023-07-28T12:47:06;2.40;;;2.13;;
22064;SDS011;11197;53.110;8.468;2023-07-28T12:49:32;4.38;;;2.20;;
22064;SDS011;11197;53.110;8.468;2023-07-28T12:52:00;3.03;;;2.30;;
22064;SDS011;11197;53.110;8.468;2023-07-28T12:54:27;3.83;;;2.67;;
22064;SDS011;11197;53.110;8.468;2023-07-28T12:56:54;3.65;;;2.38;;
22064;SDS011;11197;53.110;8.468;2023-07-28T12:59:20;4.00;;;2.50;;
22064;SDS011;11197;53.110;8.468;2023-07-28T13:01:46;4.45;;;2.10;;
22064;SDS011;11197;53.110;8.468;2023-07-28T13:04:12;3.65;;;2.40;;
22064;SDS011;11197;53.110;8.468;2023-07-28T13:06:38;3.70;;;2.35;;
22064;SDS011;11197;53.110;8.468;2023-07-28T13:09:03;3.15;;;2.50;;
22064;SDS011;11197;53.110;8.468;2023-07-28T13:11:29;4.40;;;2.53;;
22064;SDS011;11197;53.110;8.468;2023-07-28T13:13:55;3.88;;;2.58;;
22064;SDS011;11197;53.110;8.468;2023-07-28T13:16:21;3.92;;;2.53;;
22064;SDS011;11197;53.110;8.468;2023-07-28T13:18:47;4.03;;;2.40;;
22064;SDS011;11197;53.110;8.468;2023-07-28T13:21:12;4.07;;;2.35;;
22064;SDS011;11197;53.110;8.468;2023-07-28T13:23:38;5.07;;;2.70;;
22064;SDS011;11197;53.110;8.468;2023-07-28T13:26:04;3.15;;;2.50;;
22064;SDS011;11197;53.110;8.468;2023-07-28T13:28:30;3.78;;;2.40;;
22064;SDS011;11197;53.110;8.468;2023-07-28T13:30:56;3.25;;;2.20;;
22064;SDS011;11197;53.110;8.468;2023-07-28T13:33:22;4.45;;;2.33;;
22064;SDS011;11197;53.110;8.468;2023-07-28T13:35:48;3.42;;;2.10;;
22064;SDS011;11197;53.110;8.468;2023-07-28T13:38:14;2.22;;;1.90;;
22064;SDS011;11197;53.110;8.468;2023-07-28T13:40:40;4.72;;;2.08;;
22064;SDS011;11197;53.110;8.468;2023-07-28T13:43:06;4.18;;;2.20;;
22064;SDS011;11197;53.110;8.468;2023-07-28T13:45:32;3.63;;;1.73;;
22064;SDS011;11197;53.110;8.468;2023-07-28T13:47:58;2.70;;;2.00;;
22064;SDS011;11197;53.110;8.468;2023-07-28T13:50:24;6.10;;;2.00;;
22064;SDS011;11197;53.110;8.468;2023-07-28T13:52:50;2.58;;;1.67;;
22064;SDS011;11197;53.110;8.468;2023-07-28T13:55:16;3.92;;;1.80;;
22064;SDS011;11197;53.110;8.468;2023-07-28T13:57:41;3.30;;;1.88;;
22064;SDS011;11197;53.110;8.468;2023-07-28T14:00:07;3.25;;;1.70;;
22064;SDS011;11197;53.110;8.468;2023-07-28T14:02:34;2.25;;;1.50;;
22064;SDS011;11197;53.110;8.468;2023-07-28T14:05:01;2.30;;;1.55;;
22064;SDS011;11197;53.110;8.468;2023-07-28T14:07:27;2.20;;;1.60;;
22064;SDS011;11197;53.110;8.468;2023-07-28T14:09:52;3.17;;;1.70;;
22064;SDS011;11197;53.110;8.468;2023-07-28T14:12:18;4.57;;;2.03;;
22064;SDS011;11197;53.110;8.468;2023-07-28T14:14:44;4.10;;;2.10;;
22064;SDS011;11197;53.110;8.468;2023-07-28T14:17:10;3.85;;;1.90;;
22064;SDS011;11197;53.110;8.468;2023-07-28T14:19:37;3.45;;;1.80;;
22064;SDS011;11197;53.110;8.468;2023-07-28T14:22:04;3.00;;;1.90;;
22064;SDS011;11197;53.110;8.468;2023-07-28T14:24:30;2.75;;;1.80;;
22064;SDS011;11197;53.110;8.468;2023-07-28T14:26:55;3.47;;;1.70;;
22064;SDS011;11197;53.110;8.468;2023-07-28T14:29:21;2.80;;;1.88;;
22064;SDS011;11197;53.110;8.468;2023-07-28T14:31:47;3.97;;;1.50;;
22064;SDS011;11197;53.110;8.468;2023-07-28T14:34:13;2.55;;;1.50;;
22064;SDS011;11197;53.110;8.468;2023-07-28T14:36:39;2.78;;;1.60;;
22064;SDS011;11197;53.110;8.468;2023-07-28T14:39:05;3.30;;;1.40;;
22064;SDS011;11197;53.110;8.468;2023-07-28T14:41:31;1.90;;;1.40;;
22064;SDS011;11197;53.110;8.468;2023-07-28T14:43:57;3.22;;;1.67;;
22064;SDS011;11197;53.110;8.468;2023-07-28T14:46:23;4.38;;;1.50;;
22064;SDS011;11197;53.110;8.468;2023-07-28T14:48:53;1.98;;;1.70;;